Time;durP1;ratioP1;P1;durP2;ratioP2;P2;SDS_P1;SDS_P2;PMS_P1;PMS_P2;Temp;Humidity;BMP_temperature;BMP_pressure;BME280_temperature;BME280_humidity;BME280_pressure;Samples;Min_cycle;Max_cycle;Signal;HPM_P1;HPM_P2
2021/03/02 00:01:47;;;;;;;119.77;20.70;;;;;;;2.68;100.00;100039.13;3629960;81;44133;-18
2021/03/02 00:06:54;;;;;;;70.33;17.43;;;;;;;2.67;100.00;100050.23;3624141;81;43722;-19
2021/03/02 00:12:00;;;;;;;78.93;17.53;;;;;;;2.67;100.00;100043.58;3636434;80;44062;-18
2021/03/02 00:17:10;;;;;;;62.57;16.90;;;;;;;2.57;100.00;100047.59;3640094;80;44002;-18
2021/03/02 00:22:20;;;;;;;93.30;17.47;;;;;;;2.55;100.00;100046.80;3633198;80;44118;-18
2021/03/02 00:27:26;;;;;;;48.23;15.67;;;;;;;2.52;100.00;100044.30;3629471;80;43139;-18
2021/03/02 00:32:32;;;;;;;55.03;14.50;;;;;;;2.52;100.00;100050.95;3671479;80;44182;-17
2021/03/02 00:37:39;;;;;;;57.87;14.70;;;;;;;2.48;100.00;100044.88;3670320;80;43681;-18
2021/03/02 00:42:45;;;;;;;54.60;13.90;;;;;;;2.41;100.00;100042.11;3667922;79;44209;-17
2021/03/02 00:47:51;;;;;;;48.50;13.97;;;;;;;2.34;100.00;100042.85;3670884;79;44064;-18
2021/03/02 00:52:58;;;;;;;33.57;13.80;;;;;;;2.34;100.00;100044.19;3672970;79;43708;-18
2021/03/02 00:58:04;;;;;;;34.60;12.13;;;;;;;2.20;100.00;100039.48;3671759;79;43350;-18
2021/03/02 01:03:12;;;;;;;33.20;13.23;;;;;;;2.16;100.00;100048.52;3670958;79;43290;-18
2021/03/02 01:08:18;;;;;;;39.63;13.80;;;;;;;2.22;100.00;100043.40;3671461;79;43622;-18
2021/03/02 01:13:24;;;;;;;44.27;12.73;;;;;;;2.21;100.00;100043.00;3671276;79;43995;-18
2021/03/02 01:18:30;;;;;;;32.97;12.33;;;;;;;2.16;100.00;100036.55;3671817;79;44046;-18
2021/03/02 01:23:36;;;;;;;52.43;12.17;;;;;;;2.10;100.00;100041.68;3671703;79;44571;-18
2021/03/02 01:28:41;;;;;;;57.30;11.80;;;;;;;2.04;100.00;100033.11;3649748;79;44095;-18
2021/03/02 01:33:48;;;;;;;34.33;11.17;;;;;;;1.88;100.00;100024.94;3592444;81;44195;-18
2021/03/02 01:38:54;;;;;;;44.37;11.67;;;;;;;1.88;100.00;100015.19;3586064;81;44060;-18
2021/03/02 01:44:00;;;;;;;90.50;13.97;;;;;;;1.79;100.00;100013.78;3593852;81;43952;-18
2021/03/02 01:49:07;;;;;;;88.70;13.83;;;;;;;1.75;100.00;100006.86;3594838;81;44019;-18
2021/03/02 01:54:14;;;;;;;46.63;12.17;;;;;;;1.75;100.00;100003.36;3586209;81;43403;-18
2021/03/02 01:59:21;;;;;;;71.87;13.10;;;;;;;1.74;100.00;100003.80;3603705;81;44207;-18
2021/03/02 02:04:29;;;;;;;48.67;12.37;;;;;;;1.57;100.00;99997.89;3599182;81;43673;-18
2021/03/02 02:09:40;;;;;;;74.90;11.87;;;;;;;1.53;100.00;100010.44;3588464;82;43096;-18
2021/03/02 02:14:49;;;;;;;54.30;12.40;;;;;;;1.49;100.00;100005.33;3580704;82;43339;-18
2021/03/02 02:19:58;;;;;;;31.00;10.50;;;;;;;1.57;100.00;100008.51;3590106;82;44042;-18
2021/03/02 02:25:12;;;;;;;36.80;9.97;;;;;;;1.51;100.00;100004.32;3586934;81;43222;-18
2021/03/02 02:30:20;;;;;;;43.53;11.20;;;;;;;1.50;100.00;100004.39;3583376;81;43403;-18
2021/03/02 02:35:28;;;;;;;43.80;10.50;;;;;;;1.51;100.00;99999.00;3593776;81;44032;-18
2021/03/02 02:40:35;;;;;;;32.37;10.53;;;;;;;1.45;100.00;99987.77;3586384;82;44428;-18
2021/03/02 02:45:41;;;;;;;126.73;13.00;;;;;;;1.34;100.00;99989.09;3589259;81;43705;-18
2021/03/02 02:50:47;;;;;;;86.70;13.63;;;;;;;1.22;100.00;99985.17;3590721;81;43091;-18
2021/03/02 02:55:58;;;;;;;81.03;10.90;;;;;;;1.23;100.00;99980.23;3585055;81;44090;-18
2021/03/02 03:01:05;;;;;;;77.83;11.80;;;;;;;1.14;100.00;99987.25;3593244;81;44070;-18
2021/03/02 03:06:14;;;;;;;106.40;12.87;;;;;;;1.10;100.00;99981.69;3588003;81;43708;-18
2021/03/02 03:11:23;;;;;;;108.03;12.47;;;;;;;1.00;100.00;99989.62;3589450;81;44003;-19
2021/03/02 03:16:31;;;;;;;84.37;11.63;;;;;;;0.94;100.00;99988.08;3592828;81;44673;-18
2021/03/02 03:21:39;;;;;;;84.83;10.63;;;;;;;0.87;100.00;99988.78;3593096;81;44065;-19
2021/03/02 03:26:45;;;;;;;71.47;11.40;;;;;;;0.83;100.00;99988.50;3589196;81;44038;-19
2021/03/02 03:31:52;;;;;;;222.77;17.20;;;;;;;0.78;100.00;99981.64;3582498;80;44048;-19
2021/03/02 03:36:59;;;;;;;262.33;19.10;;;;;;;0.64;100.00;99986.17;3565948;81;43765;-18
2021/03/02 03:42:06;;;;;;;164.67;13.53;;;;;;;0.58;100.00;99988.13;3569985;81;44071;-18
2021/03/02 03:47:11;;;;;;;86.87;9.57;;;;;;;0.53;100.00;99982.59;3574291;81;43377;-18
2021/03/02 03:52:19;;;;;;;101.67;8.93;;;;;;;0.44;100.00;99980.70;3581267;81;43370;-18
2021/03/02 03:57:27;;;;;;;111.30;9.17;;;;;;;0.26;100.00;99984.03;3573091;81;44076;-18
2021/03/02 04:02:34;;;;;;;87.87;9.40;;;;;;;0.15;100.00;99977.83;3569538;83;42724;-18
2021/03/02 04:07:40;;;;;;;79.20;8.43;;;;;;;0.20;100.00;99974.52;3569074;81;43464;-19
2021/03/02 04:12:48;;;;;;;63.10;9.53;;;;;;;0.30;100.00;99980.36;3574202;81;43469;-18
2021/03/02 04:17:57;;;;;;;61.20;8.47;;;;;;;0.32;100.00;99976.31;3570759;81;43690;-19
2021/03/02 04:23:03;;;;;;;54.03;8.60;;;;;;;0.37;100.00;99965.09;3574098;81;43485;-18
2021/03/02 04:28:09;;;;;;;130.13;10.70;;;;;;;0.33;100.00;99968.31;3568525;81;44122;-18
2021/03/02 04:33:15;;;;;;;142.17;12.60;;;;;;;0.28;100.00;99968.50;3570296;80;44026;-19
2021/03/02 04:38:21;;;;;;;113.40;11.63;;;;;;;0.32;100.00;99973.66;3567864;81;43265;-19
2021/03/02 04:43:27;;;;;;;208.03;14.90;;;;;;;0.40;100.00;99979.56;3572690;81;44026;-18
2021/03/02 04:48:33;;;;;;;100.87;10.47;;;;;;;0.33;100.00;99983.34;3570503;81;44102;-18
2021/03/02 04:53:39;;;;;;;78.00;9.27;;;;;;;0.26;100.00;99992.87;3570072;81;44707;-18
2021/03/02 04:58:45;;;;;;;76.40;9.77;;;;;;;0.31;100.00;99987.39;3570405;81;43472;-19
2021/03/02 05:03:51;;;;;;;48.43;8.50;;;;;;;0.27;100.00;99996.37;3565521;81;44120;-18
2021/03/02 05:08:57;;;;;;;71.37;9.73;;;;;;;0.37;100.00;99991.59;3576848;81;43403;-17
2021/03/02 05:14:04;;;;;;;81.33;9.93;;;;;;;0.36;100.00;99992.52;3572422;81;43470;-17
2021/03/02 05:19:10;;;;;;;138.27;11.80;;;;;;;0.34;100.00;99987.73;3566304;81;44042;-17
2021/03/02 05:24:16;;;;;;;174.40;12.03;;;;;;;0.22;100.00;99984.61;3573006;81;44047;-17
2021/03/02 05:29:23;;;;;;;203.40;13.60;;;;;;;0.09;100.00;99986.86;3570957;83;44031;-17
2021/03/02 05:34:29;;;;;;;172.90;11.83;;;;;;;0.14;100.00;99990.67;3588286;81;44074;-17
2021/03/02 05:39:35;;;;;;;147.43;11.80;;;;;;;0.16;100.00;99986.18;3603380;82;43438;-17
2021/03/02 05:44:41;;;;;;;127.07;10.70;;;;;;;0.18;100.00;99984.78;3594446;82;43672;-17
2021/03/02 05:49:48;;;;;;;145.87;10.53;;;;;;;0.21;100.00;99986.86;3593910;82;44075;-17
2021/03/02 05:54:54;;;;;;;102.87;10.40;;;;;;;0.15;100.00;99983.13;3593128;81;43737;-17
2021/03/02 06:00:01;;;;;;;196.97;14.03;;;;;;;0.20;100.00;99989.58;3596908;81;43995;-17
2021/03/02 06:05:10;;;;;;;119.73;10.47;;;;;;;0.14;100.00;99995.97;3592433;82;26991;-17
2021/03/02 06:10:18;;;;;;;184.97;13.90;;;;;;;0.05;100.00;99997.16;3585538;81;43700;-17
2021/03/02 06:15:26;;;;;;;118.10;9.80;;;;;;;0.05;100.00;99994.98;3589487;81;44078;-17
2021/03/02 06:20:32;;;;;;;115.20;11.27;;;;;;;0.04;100.00;100002.53;3589622;82;43661;-17
2021/03/02 06:25:38;;;;;;;50.43;8.03;;;;;;;0.05;100.00;100005.59;3588874;82;43723;-16
2021/03/02 06:30:44;;;;;;;84.57;8.73;;;;;;;0.15;100.00;100012.28;3591609;81;44833;-17
2021/03/02 06:35:52;;;;;;;79.90;9.67;;;;;;;0.21;100.00;100013.37;3635443;80;42946;-17
2021/03/02 06:40:58;;;;;;;43.60;6.63;;;;;;;0.19;100.00;100015.20;3651224;78;43701;-17
2021/03/02 06:46:06;;;;;;;38.20;7.17;;;;;;;0.20;100.00;100018.73;3655436;80;43714;-17
2021/03/02 06:51:18;;;;;;;47.73;7.53;;;;;;;0.27;100.00;100022.44;3726465;78;43681;-17
2021/03/02 06:56:24;;;;;;;76.17;8.73;;;;;;;0.23;100.00;100022.12;3727816;78;44027;-17
2021/03/02 07:01:37;;;;;;;22.83;6.23;;;;;;;0.21;100.00;100024.45;3651252;80;43429;-17
2021/03/02 07:06:46;;;;;;;38.77;6.80;;;;;;;0.32;100.00;100026.23;3724001;78;43489;-17
2021/03/02 07:11:57;;;;;;;21.13;5.47;;;;;;;0.36;100.00;100022.53;3719319;78;43150;-17
2021/03/02 07:17:05;;;;;;;56.73;7.50;;;;;;;0.39;100.00;100025.55;3739796;78;44438;-18
2021/03/02 07:22:14;;;;;;;100.30;9.40;;;;;;;0.38;100.00;100028.65;3664062;79;44035;-21
2021/03/02 07:27:22;;;;;;;62.23;8.60;;;;;;;0.49;100.00;100032.24;3741530;78;43998;-16
2021/03/02 07:32:30;;;;;;;61.23;9.13;;;;;;;0.49;100.00;100032.69;3667025;79;43727;-16
2021/03/02 07:37:36;;;;;;;29.43;7.70;;;;;;;0.24;100.00;100037.12;3743117;78;43478;-18
2021/03/02 07:42:43;;;;;;;82.47;10.33;;;;;;;0.29;100.00;100032.50;3725374;78;44707;-17
2021/03/02 07:47:51;;;;;;;118.43;10.90;;;;;;;0.53;100.00;100035.16;3744613;78;43714;-16
2021/03/02 07:53:21;;;;;;;16.20;7.03;;;;;;;0.29;100.00;100033.82;3660669;79;43692;-17
2021/03/02 07:58:29;;;;;;;16.00;6.57;;;;;;;0.49;100.00;100038.87;3731962;78;44069;-17
2021/03/02 08:03:35;;;;;;;10.20;5.80;;;;;;;0.69;100.00;100046.08;3737333;78;44077;-17
2021/03/02 08:08:41;;;;;;;12.47;7.03;;;;;;;0.78;100.00;100051.48;3654637;79;44017;-16
2021/03/02 08:13:48;;;;;;;19.27;8.50;;;;;;;0.95;100.00;100044.19;3732545;78;43722;-17
2021/03/02 08:18:54;;;;;;;18.27;8.23;;;;;;;1.06;100.00;100043.78;3651307;79;43722;-17
2021/03/02 08:24:02;;;;;;;16.87;8.00;;;;;;;1.10;100.00;100046.73;3724597;78;44114;-16
2021/03/02 08:29:10;;;;;;;11.97;7.17;;;;;;;1.12;100.00;100042.19;3651886;80;43996;-16
2021/03/02 08:34:18;;;;;;;13.37;7.83;;;;;;;1.22;100.00;100044.91;3726634;78;44057;-17
2021/03/02 08:39:24;;;;;;;14.40;8.10;;;;;;;1.15;100.00;100047.39;3651896;80;43670;-18
2021/03/02 08:44:30;;;;;;;15.90;8.57;;;;;;;1.34;100.00;100046.66;3729596;78;44431;-18
2021/03/02 08:49:35;;;;;;;13.13;7.70;;;;;;;1.59;100.00;100048.31;3732252;78;44043;-18
2021/03/02 08:54:50;;;;;;;15.03;8.73;;;;;;;1.60;100.00;100042.92;3729972;78;44462;-18
2021/03/02 08:59:57;;;;;;;15.27;9.30;;;;;;;1.82;100.00;100045.52;3749480;78;43640;-18
2021/03/02 09:05:03;;;;;;;15.73;8.83;;;;;;;1.88;100.00;100043.55;3662779;79;43406;-18
2021/03/02 09:10:17;;;;;;;17.63;9.83;;;;;;;2.02;100.00;100036.30;3717550;78;43979;-18
2021/03/02 09:15:35;;;;;;;15.73;8.80;;;;;;;2.33;100.00;100040.28;3747050;78;43508;-18
2021/03/02 09:20:49;;;;;;;14.50;9.03;;;;;;;2.41;100.00;100039.45;3733199;78;43214;-19
2021/03/02 09:25:55;;;;;;;13.83;8.60;;;;;;;2.71;100.00;100041.18;3736159;78;43960;-19
2021/03/02 09:31:02;;;;;;;13.30;8.50;;;;;;;3.00;100.00;100029.61;3743281;78;44074;-19
2021/03/02 09:36:08;;;;;;;14.43;8.10;;;;;;;3.26;100.00;100034.64;3732867;78;43714;-19
2021/03/02 09:41:15;;;;;;;13.07;7.60;;;;;;;3.50;100.00;100028.55;3731103;78;43686;-19
2021/03/02 09:46:23;;;;;;;14.47;7.63;;;;;;;3.76;100.00;100025.93;3736794;78;43459;-20
2021/03/02 09:51:30;;;;;;;16.03;8.73;;;;;;;4.13;100.00;100030.67;3727013;78;44578;-19
2021/03/02 09:56:36;;;;;;;13.67;8.20;;;;;;;4.20;100.00;100035.21;3659417;79;44644;-20
2021/03/02 10:01:44;;;;;;;11.97;7.87;;;;;;;4.57;100.00;100026.58;3725614;78;44060;-20
2021/03/02 10:06:50;;;;;;;13.50;7.57;;;;;;;4.78;100.00;100022.34;3654447;80;43726;-17
2021/03/02 10:12:11;;;;;;;11.80;7.30;;;;;;;4.89;100.00;100021.27;3724604;79;44089;-18
2021/03/02 10:17:16;;;;;;;11.80;7.57;;;;;;;5.18;100.00;100024.58;3725825;79;44535;-18
2021/03/02 10:22:26;;;;;;;12.37;7.97;;;;;;;5.45;100.00;100018.15;3723404;79;44197;-18
2021/03/02 10:27:32;;;;;;;11.97;7.60;;;;;;;5.57;100.00;100008.53;3726588;78;44801;-18
2021/03/02 10:32:37;;;;;;;11.30;7.20;;;;;;;5.83;100.00;100013.67;3728693;78;44071;-18
2021/03/02 10:37:45;;;;;;;12.50;7.60;;;;;;;5.96;100.00;100008.47;3655209;80;43721;-19
2021/03/02 10:42:51;;;;;;;10.47;7.20;;;;;;;6.29;100.00;100009.22;3726965;78;44026;-19
2021/03/02 10:47:57;;;;;;;13.73;7.70;;;;;;;6.57;100.00;100010.16;3734426;78;43677;-19
2021/03/02 10:53:05;;;;;;;11.70;7.57;;;;;;;6.74;100.00;100000.59;3745075;78;44019;-19
2021/03/02 10:58:11;;;;;;;10.33;6.30;;;;;;;6.90;100.00;99999.12;3737840;78;43227;-19
2021/03/02 11:03:17;;;;;;;10.60;6.15;;;;;;;7.15;100.00;99996.66;3731284;78;43692;-19
2021/03/02 11:08:23;;;;;;;9.10;6.17;;;;;;;7.35;100.00;99989.48;3738737;78;44729;-19
2021/03/02 11:13:30;;;;;;;8.23;5.07;;;;;;;7.62;100.00;99981.91;3735328;78;44598;-19
2021/03/02 11:18:36;;;;;;;7.23;4.47;;;;;;;8.09;100.00;99969.34;3655505;79;44079;-19
2021/03/02 11:23:44;;;;;;;9.83;5.43;;;;;;;8.25;100.00;99959.26;3744765;78;43682;-19
2021/03/02 11:28:50;;;;;;;6.37;4.60;;;;;;;8.43;100.00;99951.72;3735186;78;44022;-19
2021/03/02 11:33:56;;;;;;;7.15;4.92;;;;;;;8.77;100.00;99944.41;3658954;79;44093;-18
2021/03/02 11:39:02;;;;;;;7.05;5.00;;;;;;;9.17;100.00;99937.44;3667012;79;43708;-18
2021/03/02 11:44:08;;;;;;;8.20;4.80;;;;;;;9.32;100.00;99927.85;3663435;80;44100;-17
2021/03/02 11:49:14;;;;;;;6.80;5.00;;;;;;;9.49;100.00;99920.69;3661406;80;43292;-18
2021/03/02 11:54:21;;;;;;;7.05;4.70;;;;;;;9.80;100.00;99921.50;3665080;80;44089;-17
2021/03/02 11:59:30;;;;;;;7.95;4.62;;;;;;;9.96;100.00;99911.26;3660286;80;44034;-18
2021/03/02 12:04:36;;;;;;;6.60;4.50;;;;;;;10.16;100.00;99904.77;3662996;80;44070;-18
2021/03/02 12:09:43;;;;;;;5.03;3.45;;;;;;;10.38;100.00;99898.57;3659393;80;44008;-19
2021/03/02 12:14:50;;;;;;;6.50;3.60;;;;;;;10.63;100.00;99893.38;3667183;79;43704;-18
2021/03/02 12:19:56;;;;;;;4.93;3.53;;;;;;;10.88;100.00;99882.40;3658763;81;69159;-18
2021/03/02 12:25:02;;;;;;;3.77;2.92;;;;;;;11.07;100.00;99878.55;3663082;81;44463;-18
2021/03/02 12:30:09;;;;;;;5.12;4.00;;;;;;;11.37;100.00;99871.54;3658384;79;44184;-18
2021/03/02 12:35:17;;;;;;;10.23;7.80;;;;;;;11.58;100.00;99868.48;3660220;80;44024;-18
2021/03/02 12:40:23;;;;;;;12.28;8.30;;;;;;;11.83;100.00;99862.68;3722712;79;43432;-18
2021/03/02 12:45:29;;;;;;;9.88;7.10;;;;;;;11.94;100.00;99860.88;3737354;78;43686;-18
2021/03/02 12:50:36;;;;;;;11.73;7.37;;;;;;;12.12;100.00;99851.68;3747332;78;43693;-18
2021/03/02 12:55:42;;;;;;;10.32;7.05;;;;;;;12.32;100.00;99854.80;3734026;78;44303;-19
2021/03/02 13:00:48;;;;;;;11.55;7.00;;;;;;;12.57;100.00;99843.13;3727652;78;44031;-18
2021/03/02 13:06:01;;;;;;;14.65;8.55;;;;;;;12.70;100.00;99848.78;3658949;79;43450;-18
2021/03/02 13:11:12;;;;;;;10.63;7.33;;;;;;;12.85;100.00;99844.68;3661040;79;43726;-18
2021/03/02 13:16:18;;;;;;;11.53;8.25;;;;;;;12.94;100.00;99838.42;3661147;79;43685;-18
2021/03/02 13:21:25;;;;;;;11.68;9.18;;;;;;;13.10;99.97;99834.30;3731557;78;44568;-17
2021/03/02 13:26:34;;;;;;;13.18;8.85;;;;;;;13.09;100.00;99836.13;3731449;78;44727;-18
2021/03/02 13:31:42;;;;;;;13.00;8.78;;;;;;;13.01;94.60;99824.30;3734159;78;43690;-18
2021/03/02 13:36:50;;;;;;;12.68;8.53;;;;;;;13.16;98.21;99829.66;3690250;79;44071;-18
2021/03/02 13:41:56;;;;;;;14.47;8.63;;;;;;;13.25;97.22;99836.91;3702549;79;43799;-18
2021/03/02 13:47:02;;;;;;;12.85;9.00;;;;;;;13.43;96.25;99822.69;3729963;78;44038;-18
2021/03/02 13:52:10;;;;;;;15.70;10.82;;;;;;;13.53;94.84;99811.81;3728551;78;44013;-18
2021/03/02 13:57:17;;;;;;;14.23;10.88;;;;;;;13.61;98.66;99824.63;3726994;78;43451;-18
2021/03/02 14:02:24;;;;;;;16.05;11.28;;;;;;;14.01;93.96;99818.09;3720897;79;43749;-17
2021/03/02 14:07:32;;;;;;;17.27;11.88;;;;;;;14.09;92.71;99810.05;3719974;79;44835;-18
2021/03/02 14:12:39;;;;;;;17.32;12.80;;;;;;;14.27;92.52;99813.33;3721576;78;43379;-18
2021/03/02 14:17:47;;;;;;;17.73;13.40;;;;;;;14.39;87.17;99812.61;3720939;78;43717;-18
2021/03/02 14:22:53;;;;;;;21.27;14.18;;;;;;;14.43;96.45;99808.08;3716341;79;43465;-18
2021/03/02 14:28:00;;;;;;;20.43;13.90;;;;;;;14.58;89.09;99804.86;3725724;78;44111;-18
2021/03/02 14:33:06;;;;;;;20.37;14.13;;;;;;;14.53;94.13;99793.60;3724536;78;44455;-18
2021/03/02 14:38:12;;;;;;;17.85;13.62;;;;;;;14.68;92.59;99794.82;3720980;79;44032;-18
2021/03/02 14:43:21;;;;;;;18.67;13.72;;;;;;;14.62;83.34;99790.00;3723224;78;44002;-18
2021/03/02 14:48:30;;;;;;;18.07;12.90;;;;;;;14.70;84.67;99777.05;3729137;78;43454;-18
2021/03/02 14:53:38;;;;;;;18.90;13.08;;;;;;;14.73;81.62;99791.64;3726391;78;44021;-18
2021/03/02 14:58:46;;;;;;;20.68;14.10;;;;;;;14.75;87.19;99783.72;3728142;78;43685;-18
2021/03/02 15:03:52;;;;;;;20.75;14.58;;;;;;;14.82;83.15;99787.16;3777336;77;44024;-18
2021/03/02 15:08:58;;;;;;;20.82;15.15;;;;;;;14.63;80.05;99776.78;3704647;79;43479;-19
2021/03/02 15:14:06;;;;;;;21.60;15.05;;;;;;;14.60;86.24;99777.09;3636778;80;43723;-18
2021/03/02 15:19:12;;;;;;;27.27;16.90;;;;;;;14.42;83.39;99771.13;3723858;78;43347;-18
2021/03/02 15:24:20;;;;;;;23.02;15.90;;;;;;;14.36;85.61;99774.95;3731191;78;43486;-18
2021/03/02 15:29:27;;;;;;;24.07;16.27;;;;;;;14.33;86.19;99778.34;3725852;78;44037;-18
2021/03/02 15:34:35;;;;;;;25.70;16.50;;;;;;;14.15;82.27;99770.66;3726016;78;44071;-18
2021/03/02 15:39:43;;;;;;;27.93;17.87;;;;;;;14.22;82.71;99774.97;3712295;78;43721;-18
2021/03/02 15:44:51;;;;;;;27.37;17.45;;;;;;;14.09;84.94;99761.78;3703188;79;43725;-18
2021/03/02 15:49:58;;;;;;;27.27;17.48;;;;;;;13.65;86.27;99767.31;3708599;79;43415;-18
2021/03/02 15:55:05;;;;;;;26.37;16.97;;;;;;;13.49;88.10;99769.29;3714249;79;44010;-18
2021/03/02 16:00:14;;;;;;;26.52;17.20;;;;;;;13.33;89.83;99773.94;3697039;79;44037;-18
2021/03/02 16:05:22;;;;;;;26.17;17.30;;;;;;;13.01;91.12;99772.42;3689567;79;43197;-19
2021/03/02 16:10:30;;;;;;;26.05;16.75;;;;;;;12.69;91.47;99772.70;3698992;79;43373;-19
2021/03/02 16:15:42;;;;;;;28.23;17.55;;;;;;;12.45;93.72;99766.73;3694759;79;43684;-14
2021/03/02 16:20:50;;;;;;;27.40;17.25;;;;;;;12.15;95.91;99760.39;3695021;79;43976;-19
2021/03/02 16:25:57;;;;;;;27.82;17.30;;;;;;;11.84;98.25;99769.00;3691201;79;43721;-20
2021/03/02 16:31:03;;;;;;;30.05;19.02;;;;;;;11.54;99.24;99767.52;3694061;80;43684;-20
2021/03/02 16:36:10;;;;;;;33.42;19.82;;;;;;;11.23;100.00;99772.06;3695072;80;43318;-20
2021/03/02 16:41:16;;;;;;;34.58;20.82;;;;;;;10.90;100.00;99773.94;3600600;81;43217;-19
2021/03/02 16:46:22;;;;;;;30.35;18.48;;;;;;;10.60;100.00;99780.42;3743042;78;44018;-20
2021/03/02 16:51:33;;;;;;;30.72;18.23;;;;;;;10.27;100.00;99775.98;3742246;78;43431;-18
2021/03/02 16:56:44;;;;;;;29.60;17.92;;;;;;;9.90;100.00;99783.00;3738479;78;44051;-18
2021/03/02 17:01:53;;;;;;;29.75;18.62;;;;;;;9.59;100.00;99772.84;3741995;78;44031;-18
2021/03/02 17:07:02;;;;;;;30.05;18.15;;;;;;;9.45;100.00;99778.45;3746310;78;44107;-18
2021/03/02 17:12:10;;;;;;;28.52;16.62;;;;;;;9.22;100.00;99786.02;3708450;78;44854;-18
2021/03/02 17:17:16;;;;;;;28.40;16.45;;;;;;;9.01;100.00;99777.77;3703041;78;43729;-18
2021/03/02 17:22:23;;;;;;;29.25;15.90;;;;;;;8.87;100.00;99782.87;3709229;78;44074;-17
2021/03/02 17:27:31;;;;;;;26.05;15.98;;;;;;;8.81;100.00;99781.97;3663280;79;44118;-18
2021/03/02 17:32:37;;;;;;;29.50;15.70;;;;;;;8.76;100.00;99784.17;3703804;78;44445;-18
2021/03/02 17:37:45;;;;;;;27.82;16.25;;;;;;;8.66;100.00;99788.03;3705845;78;43730;-18
2021/03/02 17:42:51;;;;;;;30.32;16.27;;;;;;;8.62;100.00;99787.41;3651647;79;44101;-18
2021/03/02 17:47:57;;;;;;;28.77;16.47;;;;;;;8.56;100.00;99785.16;3653904;80;44145;-18
2021/03/02 17:53:04;;;;;;;30.82;16.85;;;;;;;8.46;100.00;99785.45;3656884;80;44699;-18
2021/03/02 17:58:10;;;;;;;27.98;15.48;;;;;;;8.48;100.00;99791.09;3648645;79;43686;-18
2021/03/02 18:03:16;;;;;;;31.62;17.37;;;;;;;8.40;100.00;99792.63;3650418;80;43090;-18
2021/03/02 18:08:24;;;;;;;29.60;17.07;;;;;;;8.17;100.00;99784.45;3649726;79;43093;-18
2021/03/02 18:13:31;;;;;;;32.35;16.97;;;;;;;7.99;100.00;99787.48;3651856;80;43275;-19
2021/03/02 18:18:38;;;;;;;27.47;15.70;;;;;;;7.84;100.00;99780.53;3643301;80;44017;-19
2021/03/02 18:23:44;;;;;;;28.07;16.07;;;;;;;7.59;100.00;99785.45;3643864;80;44007;-19
2021/03/02 18:28:51;;;;;;;27.20;15.87;;;;;;;7.40;100.00;99779.56;3641881;80;44154;-19
2021/03/02 18:33:56;;;;;;;26.95;16.37;;;;;;;7.29;100.00;99784.81;3596213;81;77483;-19
2021/03/02 18:39:03;;;;;;;29.93;16.10;;;;;;;7.14;100.00;99778.70;3661349;79;44020;-19
2021/03/02 18:44:10;;;;;;;29.03;16.27;;;;;;;6.77;100.00;99784.73;3691376;79;44565;-19
2021/03/02 18:49:19;;;;;;;28.35;16.00;;;;;;;6.67;100.00;99776.94;3687733;79;43686;-18
2021/03/02 18:54:24;;;;;;;29.27;17.33;;;;;;;6.76;100.00;99782.16;3697450;79;44071;-20
2021/03/02 18:59:31;;;;;;;29.73;17.07;;;;;;;6.79;100.00;99788.66;3690121;79;77447;-19
2021/03/02 19:04:36;;;;;;;27.10;16.30;;;;;;;6.78;100.00;99793.14;3692377;79;44077;-19
2021/03/02 19:09:42;;;;;;;29.03;15.87;;;;;;;6.81;100.00;99787.20;3688776;79;44435;-18
2021/03/02 19:14:48;;;;;;;26.93;15.90;;;;;;;6.81;100.00;99790.77;3691400;79;44050;-19
2021/03/02 19:19:54;;;;;;;27.37;16.43;;;;;;;6.65;100.00;99782.88;3695629;79;44041;-18
2021/03/02 19:25:00;;;;;;;28.40;15.53;;;;;;;6.63;100.00;99780.31;3688639;79;43432;-19
2021/03/02 19:30:09;;;;;;;27.20;15.70;;;;;;;6.64;100.00;99775.83;3690256;77;44136;-18
2021/03/02 19:35:19;;;;;;;26.87;15.83;;;;;;;6.68;100.00;99784.02;3658434;79;43661;-19
2021/03/02 19:40:28;;;;;;;24.30;15.30;;;;;;;6.65;100.00;99780.20;3696424;79;26314;-19
2021/03/02 19:45:34;;;;;;;28.33;15.90;;;;;;;6.66;100.00;99777.05;3690451;79;43415;-19
2021/03/02 19:50:40;;;;;;;25.60;15.00;;;;;;;6.63;100.00;99784.33;3699718;79;44048;-18
2021/03/02 19:55:47;;;;;;;28.70;15.87;;;;;;;6.67;100.00;99779.61;3691606;79;44057;-17
2021/03/02 20:00:54;;;;;;;26.90;16.23;;;;;;;6.62;100.00;99772.39;3689541;80;44145;-19
2021/03/02 20:06:04;;;;;;;29.17;16.33;;;;;;;6.60;100.00;99767.61;3685791;79;42934;-19
2021/03/02 20:11:10;;;;;;;30.10;16.40;;;;;;;6.63;100.00;99775.45;3694038;79;43968;-19
2021/03/02 20:16:17;;;;;;;26.83;16.30;;;;;;;6.59;100.00;99771.25;3690349;79;44049;-19
2021/03/02 20:21:23;;;;;;;26.40;14.97;;;;;;;6.55;100.00;99777.30;3689608;80;44095;-19
2021/03/02 20:26:32;;;;;;;28.90;17.07;;;;;;;6.41;100.00;99780.86;3689451;80;43223;-19
2021/03/02 20:31:38;;;;;;;32.10;19.37;;;;;;;6.26;100.00;99776.05;3687107;79;43400;-19
2021/03/02 20:36:44;;;;;;;30.53;17.47;;;;;;;6.28;100.00;99770.61;3689258;79;43730;-19
2021/03/02 20:41:50;;;;;;;31.77;17.57;;;;;;;6.26;100.00;99777.88;3686674;79;43422;-19
2021/03/02 20:46:57;;;;;;;30.63;18.33;;;;;;;6.24;100.00;99772.59;3694410;79;43697;-19
2021/03/02 20:52:03;;;;;;;30.93;19.03;;;;;;;6.32;100.00;99772.10;3627790;80;44062;-18
2021/03/02 20:57:09;;;;;;;29.80;17.27;;;;;;;6.46;100.00;99779.25;3693776;79;43722;-19
2021/03/02 21:02:15;;;;;;;31.80;18.27;;;;;;;6.49;100.00;99779.02;3700226;79;43429;-19
2021/03/02 21:07:20;;;;;;;32.33;17.87;;;;;;;6.49;100.00;99775.00;3690937;79;44018;-18
2021/03/02 21:12:26;;;;;;;28.53;18.10;;;;;;;6.53;100.00;99775.66;3690687;79;44033;-18
2021/03/02 21:17:32;;;;;;;32.10;18.60;;;;;;;6.53;100.00;99762.27;3698974;79;44059;-19
2021/03/02 21:22:40;;;;;;;28.10;17.60;;;;;;;6.47;100.00;99769.77;3659527;79;44100;-19
2021/03/02 21:27:46;;;;;;;31.53;17.27;;;;;;;6.42;100.00;99765.18;3693591;79;43686;-17
2021/03/02 21:32:52;;;;;;;29.70;17.10;;;;;;;6.33;100.00;99761.78;3686050;79;44410;-19
2021/03/02 21:37:58;;;;;;;28.43;17.37;;;;;;;6.26;100.00;99760.48;3692339;79;43725;-19
2021/03/02 21:43:05;;;;;;;28.67;16.43;;;;;;;6.20;100.00;99759.52;3691947;79;44073;-19
2021/03/02 21:48:12;;;;;;;27.77;17.30;;;;;;;6.13;100.00;99755.92;3690130;79;43637;-19
2021/03/02 21:53:18;;;;;;;28.53;16.73;;;;;;;6.03;100.00;99756.15;3687871;79;44023;-19
2021/03/02 21:58:24;;;;;;;28.20;16.83;;;;;;;5.95;100.00;99757.06;3688881;79;43323;-18
2021/03/02 22:03:32;;;;;;;30.67;17.83;;;;;;;5.90;100.00;99759.20;3688814;80;43306;-18
2021/03/02 22:08:39;;;;;;;29.13;17.97;;;;;;;5.81;100.00;99762.84;3689350;80;44022;-17
2021/03/02 22:13:46;;;;;;;32.50;18.93;;;;;;;5.68;100.00;99759.23;3689072;79;43462;-18
2021/03/02 22:18:51;;;;;;;31.37;18.47;;;;;;;5.69;100.00;99759.61;3690685;79;44020;-18
2021/03/02 22:23:57;;;;;;;28.60;17.43;;;;;;;5.74;100.00;99761.50;3689047;79;43345;-19
2021/03/02 22:29:04;;;;;;;24.50;16.03;;;;;;;5.66;100.00;99760.64;3689455;79;44057;-18
2021/03/02 22:34:09;;;;;;;28.27;15.97;;;;;;;5.67;100.00;99761.52;3689315;79;43690;-19
2021/03/02 22:39:15;;;;;;;23.40;14.73;;;;;;;5.61;100.00;99757.42;3656057;81;44102;-19
2021/03/02 22:44:21;;;;;;;24.03;14.60;;;;;;;5.39;100.00;99761.90;3678944;79;44082;-17
2021/03/02 22:49:27;;;;;;;24.27;14.07;;;;;;;5.20;100.00;99760.83;3677278;79;44144;-18
2021/03/02 22:54:32;;;;;;;21.40;13.17;;;;;;;5.19;100.00;99747.96;3599369;81;44078;-20
2021/03/02 22:59:38;;;;;;;20.70;12.33;;;;;;;5.23;100.00;99744.63;3677003;79;44501;-20
2021/03/02 23:04:45;;;;;;;20.50;11.57;;;;;;;5.24;100.00;99736.98;3603179;81;44075;-19
2021/03/02 23:09:52;;;;;;;21.63;12.70;;;;;;;5.23;100.00;99730.77;3683181;79;44131;-18
2021/03/02 23:14:58;;;;;;;18.57;11.03;;;;;;;5.22;100.00;99726.41;3682190;79;44014;-19
2021/03/02 23:20:04;;;;;;;19.53;12.30;;;;;;;5.13;100.00;99723.43;3676794;79;44142;-19
2021/03/02 23:25:15;;;;;;;24.27;13.20;;;;;;;5.05;100.00;99722.56;3610036;81;44432;-19
2021/03/02 23:30:22;;;;;;;23.83;13.67;;;;;;;4.99;100.00;99726.47;3678753;79;43690;-19